Terminal Aerodrome Forecast
Issued by NWS

Home | Current Version | Previous Version | Text Only | Print | Product List | Glossary On
Versions: 1 2 3 4 5 6 7 8 9 10 11 12 13 14 15 16 17 18 19 20 21 22 23 24 25 26 27 28 29 30 31
000
FTUS45 KPSR 022326
TAFSDL
TAF
KSDL 022326Z 0300/0324 24008KT P6SM SKC
     FM030300 VRB03KT P6SM SKC
      TEMPO 0315/0318 15005KT
     FM032100 24010KT P6SM SKC=

USA.gov is the U.S. government's official web portal to all federal, state and local government web resources and services.